createdAt,value
2023-05-14T00:00:58.587Z,89.73
2023-05-14T00:03:26.337Z,111.37
2023-05-14T00:05:53.969Z,89.22
2023-05-14T00:08:21.599Z,100.14
2023-05-14T00:10:50.522Z,93.37
2023-05-14T00:13:19.284Z,91.90
2023-05-14T00:15:46.857Z,91.11
2023-05-14T00:18:14.729Z,94.00
2023-05-14T00:20:42.962Z,103.52
2023-05-14T00:23:11.706Z,115.97
2023-05-14T00:25:39.284Z,99.18
2023-05-14T00:28:08.260Z,112.75
2023-05-14T00:30:35.851Z,115.77
2023-05-14T00:33:03.907Z,123.54
2023-05-14T00:35:31.891Z,123.65
2023-05-14T00:37:59.507Z,111.48
2023-05-14T00:40:27.948Z,105.37
2023-05-14T00:42:56.912Z,113.90
2023-05-14T00:45:26.455Z,123.45
2023-05-14T00:47:54.903Z,120.38
2023-05-14T00:50:23.394Z,124.34
2023-05-14T00:52:51.270Z,140.43
2023-05-14T00:55:21.127Z,214.29
2023-05-14T00:57:50.646Z,178.64
2023-05-14T01:00:18.772Z,161.12
2023-05-14T01:02:48.464Z,158.87
2023-05-14T01:05:16.582Z,158.02
2023-05-14T01:07:57.476Z,143.51
2023-05-14T01:10:32.462Z,149.98
2023-05-14T01:13:08.310Z,171.02
2023-05-14T01:15:39.265Z,152.48
2023-05-14T01:18:11.790Z,154.61
2023-05-14T01:20:40.499Z,193.47
2023-05-14T01:23:09.436Z,190.26
2023-05-14T01:25:37.363Z,160.92
2023-05-14T01:28:11.803Z,172.10
2023-05-14T01:30:46.234Z,206.04
2023-05-14T01:33:17.956Z,204.44
2023-05-14T01:35:48.463Z,209.51
2023-05-14T01:38:19.928Z,168.89
2023-05-14T01:40:49.558Z,167.63
2023-05-14T01:43:19.372Z,281.08
2023-05-14T01:45:47.196Z,161.66
2023-05-14T01:48:15.046Z,154.09
2023-05-14T01:50:42.679Z,153.37
2023-05-14T01:53:10.308Z,174.36
2023-05-14T01:55:40.926Z,276.67
2023-05-14T01:58:08.503Z,287.99
2023-05-14T02:00:36.178Z,175.52
2023-05-14T02:03:04.002Z,165.47
2023-05-14T02:05:31.652Z,176.04
2023-05-14T02:07:59.373Z,182.45
2023-05-14T02:10:28.341Z,202.20
2023-05-14T02:12:58.768Z,184.23
2023-05-14T02:15:26.308Z,160.83
2023-05-14T02:17:53.933Z,170.94
2023-05-14T02:20:23.374Z,204.23
2023-05-14T02:22:51.478Z,130.22
2023-05-14T02:25:19.220Z,132.24
2023-05-14T02:27:47.591Z,133.49
2023-05-14T02:30:18.290Z,114.59
2023-05-14T02:32:46.948Z,108.11
2023-05-14T02:35:14.618Z,98.63
2023-05-14T02:37:42.460Z,104.43
2023-05-14T02:40:13.549Z,102.39
2023-05-14T02:42:43.553Z,96.05
2023-05-14T02:45:11.565Z,96.08
2023-05-14T02:47:40.428Z,106.47
2023-05-14T02:50:09.213Z,101.96
2023-05-14T02:52:37.065Z,88.62
2023-05-14T02:55:06.505Z,88.15
2023-05-14T02:57:34.053Z,102.63
2023-05-14T03:00:01.718Z,102.07
2023-05-14T03:02:29.743Z,142.96
2023-05-14T03:04:59.204Z,140.66
2023-05-14T03:07:26.906Z,139.07
2023-05-14T03:09:54.654Z,183.13
2023-05-14T03:12:22.290Z,205.66
2023-05-14T03:14:49.984Z,160.25
2023-05-14T03:17:17.580Z,164.72
2023-05-14T03:19:45.185Z,164.45
2023-05-14T03:22:14.229Z,124.74
2023-05-14T03:24:44.149Z,159.30
2023-05-14T03:27:11.985Z,126.33
2023-05-14T03:29:42.234Z,135.89
2023-05-14T03:32:09.942Z,111.45
2023-05-14T03:34:37.696Z,101.02
2023-05-14T03:37:05.476Z,105.17
2023-05-14T03:39:35.721Z,113.19
2023-05-14T03:42:03.722Z,144.91
2023-05-14T03:44:31.390Z,111.09
2023-05-14T03:46:58.994Z,131.21
2023-05-14T03:49:26.800Z,107.10
2023-05-14T03:51:54.404Z,141.48
2023-05-14T03:54:22.055Z,163.06
2023-05-14T03:56:51.315Z,148.34
2023-05-14T03:59:19.228Z,142.93
2023-05-14T04:01:46.823Z,113.28
2023-05-14T04:04:14.483Z,119.29
2023-05-14T04:06:42.348Z,113.29
2023-05-14T04:09:10.149Z,94.29
2023-05-14T04:11:38.323Z,124.65
2023-05-14T04:14:08.414Z,117.15
2023-05-14T04:16:35.985Z,123.19
2023-05-14T04:19:04.225Z,106.19
2023-05-14T04:21:31.928Z,117.51
2023-05-14T04:23:59.518Z,105.85
2023-05-14T04:26:27.280Z,109.01
2023-05-14T04:28:54.927Z,130.45
2023-05-14T04:31:24.131Z,115.19
2023-05-14T04:33:51.743Z,122.91
2023-05-14T04:36:19.333Z,104.45
2023-05-14T04:38:47.302Z,122.30
2023-05-14T04:41:14.883Z,111.52
2023-05-14T04:43:42.491Z,129.40
2023-05-14T04:46:10.111Z,168.44
2023-05-14T04:48:39.027Z,170.55
2023-05-14T04:51:07.259Z,142.88
2023-05-14T04:53:34.914Z,146.24
2023-05-14T04:56:02.730Z,134.83
2023-05-14T04:58:34.600Z,159.76
2023-05-14T05:01:04.413Z,215.15
2023-05-14T05:03:32.245Z,304.39
2023-05-14T05:06:01.425Z,209.86
2023-05-14T05:08:29.034Z,180.25
2023-05-14T05:10:58.962Z,187.09
2023-05-14T05:13:28.381Z,155.74
2023-05-14T05:15:56.000Z,130.83
2023-05-14T05:18:23.890Z,161.36
2023-05-14T05:20:51.631Z,148.08
2023-05-14T05:23:20.591Z,142.20
2023-05-14T05:25:48.771Z,157.81
2023-05-14T05:28:16.726Z,156.81
2023-05-14T05:30:45.155Z,154.73
2023-05-14T05:33:12.923Z,154.45
2023-05-14T05:35:42.806Z,157.22
2023-05-14T05:38:10.414Z,185.23
2023-05-14T05:40:39.662Z,122.48
2023-05-14T05:43:07.308Z,137.51
2023-05-14T05:45:37.248Z,106.74
2023-05-14T05:48:05.419Z,105.85
2023-05-14T05:50:33.305Z,101.12
2023-05-14T05:53:00.945Z,105.92
2023-05-14T05:55:29.425Z,110.24
2023-05-14T05:57:58.323Z,110.38
2023-05-14T06:00:26.039Z,111.42
2023-05-14T06:02:53.983Z,105.34
2023-05-14T06:05:21.655Z,99.44
2023-05-14T06:07:49.363Z,119.92
2023-05-14T06:10:17.074Z,132.94
2023-05-14T06:12:44.704Z,136.50
2023-05-14T06:15:14.456Z,184.80
2023-05-14T06:17:42.136Z,130.07
2023-05-14T06:20:10.906Z,109.53
2023-05-14T06:22:39.574Z,127.29
2023-05-14T06:25:08.189Z,131.91
2023-05-14T06:27:36.306Z,167.90
2023-05-14T06:30:06.190Z,137.93
2023-05-14T06:32:36.837Z,151.49
2023-05-14T06:35:05.344Z,133.63
2023-05-14T06:37:35.531Z,130.29
2023-05-14T06:40:07.805Z,118.75
2023-05-14T06:42:35.391Z,135.82
2023-05-14T06:45:03.446Z,170.76
2023-05-14T06:47:32.351Z,146.97
2023-05-14T06:50:04.578Z,147.44
2023-05-14T06:52:32.220Z,197.39
2023-05-14T06:55:00.177Z,181.68
2023-05-14T06:57:27.905Z,147.48
2023-05-14T06:59:55.567Z,155.09
2023-05-14T07:02:23.300Z,165.61
2023-05-14T07:04:50.900Z,186.22
2023-05-14T07:07:19.955Z,172.44
2023-05-14T07:09:47.725Z,184.65
2023-05-14T07:12:16.419Z,173.58
2023-05-14T07:14:46.181Z,156.05
2023-05-14T07:17:14.983Z,148.09
2023-05-14T07:19:42.577Z,118.63
2023-05-14T07:22:10.346Z,99.81
2023-05-14T07:24:43.633Z,101.17
2023-05-14T07:27:11.386Z,93.94
2023-05-14T07:29:39.155Z,108.66
2023-05-14T07:32:06.792Z,139.00
2023-05-14T07:34:34.888Z,153.84
2023-05-14T07:37:03.083Z,118.56
2023-05-14T07:39:30.705Z,98.20
2023-05-14T07:42:02.431Z,89.39
2023-05-14T07:44:30.511Z,92.64
2023-05-14T07:46:58.454Z,111.43
2023-05-14T07:49:26.118Z,78.26
2023-05-14T07:51:53.678Z,69.09
2023-05-14T07:54:21.396Z,70.09
2023-05-14T07:56:48.945Z,95.95
2023-05-14T07:59:25.648Z,103.32
2023-05-14T08:01:53.240Z,112.69
2023-05-14T08:04:20.893Z,89.09
2023-05-14T08:06:49.467Z,88.82
2023-05-14T08:09:17.166Z,82.00
2023-05-14T08:11:44.872Z,73.37
2023-05-14T08:14:12.460Z,59.42
2023-05-14T08:16:41.490Z,57.17
2023-05-14T08:19:09.253Z,49.54
2023-05-14T08:21:37.009Z,48.55
2023-05-14T08:24:05.484Z,36.40
2023-05-14T08:26:33.417Z,42.39
2023-05-14T08:29:01.129Z,47.29
2023-05-14T08:31:30.050Z,58.23
2023-05-14T08:33:59.182Z,62.17
2023-05-14T08:36:26.890Z,57.17
2023-05-14T08:38:56.128Z,51.07
2023-05-14T08:41:24.079Z,50.27
2023-05-14T08:44:00.559Z,132.85
2023-05-14T08:46:30.744Z,56.60
2023-05-14T08:49:08.672Z,51.06
2023-05-14T08:51:36.886Z,47.05
2023-05-14T08:54:05.880Z,51.02
2023-05-14T08:56:33.757Z,65.06
2023-05-14T08:59:01.462Z,67.78
2023-05-14T09:01:29.710Z,61.59
2023-05-14T09:04:02.717Z,71.57
2023-05-14T09:06:31.183Z,75.88
2023-05-14T09:08:58.874Z,71.13
2023-05-14T09:11:26.808Z,66.16
2023-05-14T09:13:55.600Z,62.58
2023-05-14T09:16:27.801Z,69.16
2023-05-14T09:18:55.461Z,56.53
2023-05-14T09:21:27.963Z,148.80
2023-05-14T09:23:57.535Z,47.99
2023-05-14T09:26:26.324Z,36.04
2023-05-14T09:28:54.713Z,40.59
2023-05-14T09:31:23.213Z,50.06
2023-05-14T09:33:51.298Z,347.57
2023-05-14T09:36:19.833Z,185.81
2023-05-14T09:38:50.807Z,56.63
2023-05-14T09:41:18.445Z,55.01
2023-05-14T09:43:46.124Z,49.15
2023-05-14T09:46:14.480Z,88.30
2023-05-14T09:48:42.482Z,47.62
2023-05-14T09:51:10.420Z,49.52
2023-05-14T09:53:38.738Z,43.23
2023-05-14T09:56:08.979Z,77.85
2023-05-14T09:58:36.800Z,41.19
2023-05-14T10:01:09.078Z,44.55
2023-05-14T10:03:37.132Z,35.39
2023-05-14T10:06:06.910Z,37.95
2023-05-14T10:08:38.689Z,47.51
2023-05-14T10:11:13.519Z,52.87
2023-05-14T10:13:46.260Z,53.89
2023-05-14T10:16:19.699Z,63.70
2023-05-14T10:18:53.536Z,54.24
2023-05-14T10:21:23.571Z,64.01
2023-05-14T10:23:52.649Z,75.80
2023-05-14T10:26:24.086Z,78.89
2023-05-14T10:28:51.945Z,83.19
2023-05-14T10:31:23.177Z,65.71
2023-05-14T10:33:50.978Z,58.93
2023-05-14T10:36:18.715Z,48.31
2023-05-14T10:38:47.023Z,57.40
2023-05-14T10:41:16.260Z,46.48
2023-05-14T10:43:45.351Z,60.18
2023-05-14T10:46:14.393Z,50.39
2023-05-14T10:48:43.994Z,51.12
2023-05-14T10:51:12.495Z,54.30
2023-05-14T10:53:43.608Z,226.20
2023-05-14T10:56:13.463Z,51.44
2023-05-14T10:58:44.986Z,58.63
2023-05-14T11:01:13.750Z,41.55
2023-05-14T11:03:43.271Z,43.33
2023-05-14T11:06:12.978Z,45.94
2023-05-14T11:08:41.041Z,69.18
2023-05-14T11:11:09.771Z,44.78
2023-05-14T11:13:37.811Z,34.86
2023-05-14T11:16:22.581Z,40.51
2023-05-14T11:19:01.234Z,41.22
2023-05-14T11:21:29.082Z,50.82
2023-05-14T11:24:00.058Z,55.75
2023-05-14T11:26:27.988Z,49.45
2023-05-14T11:28:55.941Z,50.95
2023-05-14T11:31:27.883Z,58.81
2023-05-14T11:33:55.809Z,43.15
2023-05-14T11:36:23.365Z,44.67
2023-05-14T11:38:51.948Z,59.87
2023-05-14T11:41:19.884Z,52.88
2023-05-14T11:43:48.076Z,61.79
2023-05-14T11:46:18.940Z,62.39
2023-05-14T11:48:48.288Z,64.68
2023-05-14T11:51:16.093Z,68.22
2023-05-14T11:53:46.455Z,63.18
2023-05-14T11:56:15.590Z,58.82
2023-05-14T11:58:48.234Z,66.36
2023-05-14T12:01:15.978Z,70.86
2023-05-14T12:03:43.892Z,79.86
2023-05-14T12:06:14.506Z,58.40
2023-05-14T12:08:47.628Z,54.21
2023-05-14T12:11:15.260Z,59.94
2023-05-14T12:13:42.900Z,58.16
2023-05-14T12:16:15.164Z,53.82
2023-05-14T12:18:43.474Z,52.56
2023-05-14T12:21:11.578Z,54.81
2023-05-14T12:23:45.281Z,51.20
2023-05-14T12:26:14.587Z,61.05
2023-05-14T12:28:42.249Z,104.76
2023-05-14T12:31:11.308Z,43.40
2023-05-14T12:33:39.032Z,52.73
2023-05-14T12:38:37.732Z,42.63
2023-05-14T12:41:07.061Z,45.69
2023-05-14T12:43:34.829Z,55.63
2023-05-14T12:46:02.577Z,62.27
2023-05-14T12:48:31.673Z,75.13
2023-05-14T12:51:00.689Z,77.16
2023-05-14T12:53:28.269Z,56.11
2023-05-14T12:55:55.961Z,67.46
2023-05-14T12:58:24.879Z,61.37
2023-05-14T13:00:52.803Z,61.55
2023-05-14T13:03:20.786Z,55.84
2023-05-14T13:05:48.802Z,54.54
2023-05-14T13:08:16.446Z,35.19
2023-05-14T13:10:44.303Z,28.58
2023-05-14T13:13:12.172Z,29.65
2023-05-14T13:15:42.368Z,28.13
2023-05-14T13:18:10.363Z,23.51
2023-05-14T13:20:41.277Z,22.70
2023-05-14T13:23:11.955Z,21.35
2023-05-14T13:25:39.773Z,20.23
2023-05-14T13:28:07.885Z,20.15
2023-05-14T13:30:36.589Z,68.25
2023-05-14T13:33:07.016Z,25.78
2023-05-14T13:35:34.782Z,30.04
2023-05-14T13:38:02.456Z,27.69
2023-05-14T13:40:30.086Z,29.79
2023-05-14T13:43:01.489Z,32.20
2023-05-14T13:45:29.066Z,52.32
2023-05-14T13:47:56.948Z,56.91
2023-05-14T13:50:26.249Z,43.94
2023-05-14T13:52:54.098Z,38.41
2023-05-14T13:55:21.814Z,54.47
2023-05-14T13:57:50.215Z,45.01
2023-05-14T14:00:18.680Z,85.78
2023-05-14T14:02:46.383Z,63.13
2023-05-14T14:05:14.224Z,44.29
2023-05-14T14:07:43.230Z,41.72
2023-05-14T14:10:11.050Z,51.16
2023-05-14T14:12:38.827Z,33.79
2023-05-14T14:15:07.854Z,45.92
2023-05-14T14:17:35.490Z,50.58
2023-05-14T14:20:03.363Z,58.76
2023-05-14T14:22:31.725Z,209.35
2023-05-14T14:25:03.712Z,250.40
2023-05-14T14:27:33.785Z,37.45
2023-05-14T14:30:01.882Z,49.65
2023-05-14T14:32:29.482Z,31.99
2023-05-14T14:34:57.173Z,35.75
2023-05-14T14:37:24.858Z,37.61
2023-05-14T14:39:52.466Z,28.10
2023-05-14T14:42:21.571Z,35.17
2023-05-14T14:44:50.261Z,37.03
2023-05-14T14:47:17.946Z,35.89
2023-05-14T14:49:45.897Z,36.86
2023-05-14T14:52:13.569Z,30.30
2023-05-14T14:54:41.639Z,30.39
2023-05-14T14:57:09.231Z,30.13
2023-05-14T14:59:38.242Z,31.17
2023-05-14T15:02:06.069Z,31.61
2023-05-14T15:04:33.987Z,40.28
2023-05-14T15:07:02.180Z,47.27
2023-05-14T15:09:30.072Z,39.75
2023-05-14T15:11:57.870Z,39.58
2023-05-14T15:14:25.529Z,28.10
2023-05-14T15:16:54.772Z,49.06
2023-05-14T15:19:22.672Z,93.14
2023-05-14T15:21:50.367Z,61.25
2023-05-14T15:24:17.935Z,34.59
2023-05-14T15:26:45.616Z,34.12
2023-05-14T15:29:13.238Z,34.78
2023-05-14T15:31:40.860Z,32.12
2023-05-14T15:34:09.974Z,35.02
2023-05-14T15:36:37.643Z,62.49
2023-05-14T15:39:05.216Z,34.82
2023-05-14T15:41:32.989Z,38.52
2023-05-14T15:44:00.626Z,40.30
2023-05-14T15:46:28.217Z,38.95
2023-05-14T15:48:56.018Z,41.45
2023-05-14T15:51:25.064Z,65.06
2023-05-14T15:53:55.571Z,41.62
2023-05-14T15:56:23.235Z,35.74
2023-05-14T15:58:50.948Z,43.99
2023-05-14T16:01:18.704Z,46.90
2023-05-14T16:03:46.782Z,60.75
2023-05-14T16:06:15.038Z,65.66
2023-05-14T16:08:44.437Z,60.70
2023-05-14T16:11:12.087Z,90.54
2023-05-14T16:13:40.695Z,54.22
2023-05-14T16:16:08.617Z,55.90
2023-05-14T16:18:37.318Z,53.70
2023-05-14T16:21:04.982Z,44.70
2023-05-14T16:23:32.550Z,37.12
2023-05-14T16:26:01.534Z,33.49
2023-05-14T16:28:29.224Z,35.03
2023-05-14T16:31:03.474Z,34.51
2023-05-14T16:33:31.512Z,32.64
2023-05-14T16:35:59.178Z,32.65
2023-05-14T16:38:26.879Z,33.82
2023-05-14T16:40:54.461Z,36.13
2023-05-14T16:43:25.824Z,55.74
2023-05-14T16:45:54.661Z,58.51
2023-05-14T16:48:22.265Z,75.05
2023-05-14T16:50:50.042Z,55.44
2023-05-14T16:53:17.622Z,73.20
2023-05-14T16:55:45.287Z,64.31
2023-05-14T16:58:13.049Z,79.71
2023-05-14T17:00:42.077Z,68.47
2023-05-14T17:03:09.693Z,93.33
2023-05-14T17:05:37.878Z,79.73
2023-05-14T17:08:06.696Z,81.56
2023-05-14T17:10:34.651Z,94.59
2023-05-14T17:13:02.954Z,100.38
2023-05-14T17:15:30.704Z,104.22
2023-05-14T17:17:59.729Z,108.01
2023-05-14T17:20:28.178Z,130.24
2023-05-14T17:22:55.838Z,123.17
2023-05-14T17:25:23.592Z,111.25
2023-05-14T17:27:51.710Z,116.17
2023-05-14T17:30:19.537Z,115.08
2023-05-14T17:32:49.059Z,119.46
2023-05-14T17:35:19.806Z,99.18
2023-05-14T17:37:47.398Z,102.89
2023-05-14T17:40:15.100Z,103.83
2023-05-14T17:42:42.656Z,95.84
2023-05-14T17:45:11.116Z,91.21
2023-05-14T17:47:39.212Z,111.13
2023-05-14T17:50:08.796Z,120.62
2023-05-14T17:52:37.785Z,123.87
2023-05-14T17:55:05.846Z,114.31
2023-05-14T17:57:35.029Z,137.99
2023-05-14T18:00:02.910Z,132.36
2023-05-14T18:02:30.818Z,136.62
2023-05-14T18:04:58.730Z,128.25
2023-05-14T18:07:26.570Z,107.04
2023-05-14T18:09:57.982Z,124.87
2023-05-14T18:12:25.679Z,142.05
2023-05-14T18:14:53.588Z,123.13
2023-05-14T18:17:21.428Z,109.78
2023-05-14T18:19:49.110Z,130.90
2023-05-14T18:22:16.791Z,124.42
2023-05-14T18:24:45.109Z,105.48
2023-05-14T18:27:14.448Z,110.35
2023-05-14T18:29:42.089Z,94.40
2023-05-14T18:32:09.880Z,92.54
2023-05-14T18:34:47.778Z,110.19
2023-05-14T18:37:15.741Z,98.19
2023-05-14T18:39:43.373Z,122.90
2023-05-14T18:42:11.230Z,127.38
2023-05-14T18:44:40.170Z,173.01
2023-05-14T18:47:07.902Z,179.99
2023-05-14T18:49:35.671Z,156.27
2023-05-14T18:52:03.518Z,104.08
2023-05-14T18:54:31.097Z,107.19
2023-05-14T18:56:59.737Z,116.36
2023-05-14T18:59:27.538Z,123.40
2023-05-14T19:01:56.773Z,140.20
2023-05-14T19:04:25.076Z,129.16
2023-05-14T19:06:52.848Z,156.01
2023-05-14T19:09:24.083Z,128.33
2023-05-14T19:11:54.934Z,148.85
2023-05-14T19:14:22.581Z,121.74
2023-05-14T19:16:50.659Z,126.23
2023-05-14T19:19:20.399Z,144.87
2023-05-14T19:21:48.005Z,146.77
2023-05-14T19:24:17.221Z,158.54
2023-05-14T19:26:44.993Z,160.52
2023-05-14T19:29:12.672Z,150.74
2023-05-14T19:31:40.336Z,163.18
2023-05-14T19:34:07.932Z,173.58
2023-05-14T19:36:36.914Z,175.81
2023-05-14T19:39:04.865Z,168.89
2023-05-14T19:41:32.504Z,236.96
2023-05-14T19:44:00.699Z,229.26
2023-05-14T19:46:28.403Z,197.35
2023-05-14T19:48:56.113Z,172.81
2023-05-14T19:51:23.740Z,166.66
2023-05-14T19:53:52.845Z,211.08
2023-05-14T19:56:20.789Z,175.79
2023-05-14T19:58:48.426Z,206.67
2023-05-14T20:01:16.298Z,192.45
2023-05-14T20:03:44.037Z,197.10
2023-05-14T20:06:12.073Z,186.73
2023-05-14T20:08:40.010Z,163.14
2023-05-14T20:11:09.107Z,163.27
2023-05-14T20:13:37.303Z,166.51
2023-05-14T20:16:05.708Z,149.14
2023-05-14T20:18:33.685Z,197.14
2023-05-14T20:21:01.576Z,175.31
2023-05-14T20:23:29.464Z,136.83
2023-05-14T20:25:57.176Z,151.18
2023-05-14T20:28:26.159Z,156.06
2023-05-14T20:30:54.151Z,152.80
2023-05-14T20:33:21.831Z,165.66
2023-05-14T20:35:49.524Z,182.43
2023-05-14T20:38:17.127Z,180.81
2023-05-14T20:40:44.832Z,173.24
2023-05-14T20:43:12.698Z,205.13
2023-05-14T20:45:42.087Z,289.43
2023-05-14T20:48:09.967Z,331.21
2023-05-14T20:50:40.075Z,165.98
2023-05-14T20:53:07.831Z,195.06
2023-05-14T20:55:35.819Z,194.83
2023-05-14T20:58:03.516Z,180.19
2023-05-14T21:00:31.227Z,192.59
2023-05-14T21:03:00.564Z,167.96
2023-05-14T21:05:28.441Z,330.19
2023-05-14T21:07:56.073Z,173.97
2023-05-14T21:10:31.320Z,130.78
2023-05-14T21:12:58.944Z,162.39
2023-05-14T21:15:27.124Z,177.04
2023-05-14T21:17:55.184Z,152.57
2023-05-14T21:20:25.206Z,141.13
2023-05-14T21:22:54.586Z,121.69
2023-05-14T21:25:22.477Z,122.25
2023-05-14T21:27:50.377Z,134.78
2023-05-14T21:30:18.620Z,104.87
2023-05-14T21:32:46.215Z,111.95
2023-05-14T21:35:14.072Z,102.21
2023-05-14T21:37:43.287Z,106.38
2023-05-14T21:40:11.999Z,107.00
2023-05-14T21:42:41.984Z,121.60
2023-05-14T21:45:10.358Z,115.35
2023-05-14T21:47:38.215Z,116.60
2023-05-14T21:50:06.934Z,106.36
2023-05-14T21:52:34.544Z,97.94
2023-05-14T21:55:04.028Z,93.36
2023-05-14T21:57:34.284Z,140.18
2023-05-14T22:00:02.443Z,147.79
2023-05-14T22:02:30.342Z,102.00
2023-05-14T22:04:57.986Z,107.43
2023-05-14T22:07:26.234Z,98.55
2023-05-14T22:09:53.831Z,122.35
2023-05-14T22:12:22.780Z,148.80
2023-05-14T22:14:52.706Z,192.24
2023-05-14T22:17:20.647Z,168.55
2023-05-14T22:19:48.260Z,179.36
2023-05-14T22:22:17.008Z,189.27
2023-05-14T22:24:45.049Z,156.67
2023-05-14T22:27:12.792Z,259.27
2023-05-14T22:29:42.967Z,384.48
2023-05-14T22:32:10.693Z,357.28
2023-05-14T22:34:38.413Z,248.66
2023-05-14T22:37:06.263Z,288.10
2023-05-14T22:39:34.023Z,166.05
2023-05-14T22:42:03.030Z,159.12
2023-05-14T22:44:30.676Z,192.53
2023-05-14T22:46:59.803Z,220.65
2023-05-14T22:49:27.503Z,284.01
2023-05-14T22:51:55.184Z,241.04
2023-05-14T22:54:23.047Z,229.69
2023-05-14T22:56:51.126Z,174.21
2023-05-14T22:59:20.209Z,180.44
2023-05-14T23:01:49.295Z,297.67
2023-05-14T23:04:18.264Z,149.86
2023-05-14T23:06:46.168Z,193.75
2023-05-14T23:09:14.003Z,170.98
2023-05-14T23:11:41.702Z,131.18
2023-05-14T23:14:09.400Z,143.27
2023-05-14T23:16:37.288Z,104.83
2023-05-14T23:19:05.139Z,107.81
2023-05-14T23:21:34.334Z,109.23
2023-05-14T23:24:02.006Z,102.57
2023-05-14T23:26:29.956Z,97.26
2023-05-14T23:28:57.665Z,160.05
2023-05-14T23:31:25.506Z,142.04
2023-05-14T23:33:53.134Z,149.07
2023-05-14T23:36:20.898Z,151.34
2023-05-14T23:38:50.007Z,318.53
2023-05-14T23:41:17.663Z,212.72
2023-05-14T23:43:45.335Z,178.42
2023-05-14T23:46:13.246Z,192.48
2023-05-14T23:48:41.099Z,194.70
2023-05-14T23:51:08.721Z,184.88
2023-05-14T23:53:36.362Z,210.80
2023-05-14T23:56:06.073Z,222.33
2023-05-14T23:58:33.837Z,176.42
